15NH weather

Nashua Technology Park Heliport
Nashua, New Hampshire, United States

Public forecast

Using degrees Fahrenheit for public forecast. Weather courtesy of forecast.io.

METAR (pilot weather report)

Closest report is Boire Field, 5.1 nm (9.4 km) NNW. Retrieved 2019/09/17 04:56 UTC (38 minutes ago):

KASH 170456Z AUTO 29003KT 10SM CLR 09/09 A3009 RMK AO2 SLP192 T00940089 402170089

TAF (pilot weather forecast)

Forecast is more than 12 hours old.

Closest forecast is Manchester-Boston Regional Airport, 13.5 nm (25.0 km) N. Retrieved 2019/09/16 00:39 UTC (1 day ago):

TAF KMHT 162336Z 1700/1724 34003KT P6SM SKC FM171400 36010KT P6SM BKN040